Time;durP1;ratioP1;P1;durP2;ratioP2;P2;SDS_P1;SDS_P2;PMS_P1;PMS_P2;Temp;Humidity;BMP_temperature;BMP_pressure;BME280_temperature;BME280_humidity;BME280_pressure;Samples;Min_cycle;Max_cycle;Signal;HPM_P1;HPM_P2
2022/06/15 00:00:58;;;;;;;1.00;0.77;;;15.30;98.90;;;;;;4928249;29;20079;-68
2022/06/15 00:03:26;;;;;;;1.55;0.80;;;15.20;99.20;;;;;;4910559;29;20142;-69
2022/06/15 00:06:01;;;;;;;0.65;0.60;;;15.20;99.40;;;;;;4926381;29;20128;-68
2022/06/15 00:08:28;;;;;;;1.20;0.60;;;15.20;99.60;;;;;;4926533;29;20062;-68
2022/06/15 00:10:55;;;;;;;1.58;0.73;;;15.10;99.60;;;;;;4925830;29;20147;-68
2022/06/15 00:13:21;;;;;;;0.80;0.60;;;15.00;99.80;;;;;;4907881;29;20139;-68
2022/06/15 00:15:49;;;;;;;1.05;0.82;;;15.00;99.90;;;;;;4925150;29;20139;-68
2022/06/15 00:18:16;;;;;;;0.98;0.60;;;14.90;99.90;;;;;;4925977;29;20135;-68
2022/06/15 00:20:43;;;;;;;0.77;0.60;;;14.90;99.90;;;;;;4926613;29;20134;-68
2022/06/15 00:23:10;;;;;;;1.80;0.65;;;14.80;99.90;;;;;;4908906;29;20864;-68
2022/06/15 00:25:36;;;;;;;1.00;0.70;;;14.70;99.90;;;;;;4926110;29;20093;-68
2022/06/15 00:28:03;;;;;;;0.77;0.63;;;14.70;99.90;;;;;;4891868;29;20138;-68
2022/06/15 00:30:30;;;;;;;0.77;0.70;;;14.70;99.90;;;;;;4923704;29;20114;-68
2022/06/15 00:32:57;;;;;;;0.70;0.60;;;14.60;99.90;;;;;;4925269;29;20094;-68
2022/06/15 00:35:23;;;;;;;1.08;0.60;;;14.60;99.90;;;;;;4892638;29;20707;-68
2022/06/15 00:37:50;;;;;;;0.88;0.63;;;14.60;99.90;;;;;;4908815;29;20135;-68
2022/06/15 00:40:17;;;;;;;0.68;0.60;;;14.50;99.90;;;;;;4907658;29;20087;-68
2022/06/15 00:42:43;;;;;;;0.73;0.50;;;14.50;99.90;;;;;;4907499;29;20655;-68
2022/06/15 00:45:10;;;;;;;0.60;0.50;;;14.50;99.90;;;;;;4906549;29;20577;-68
2022/06/15 00:47:38;;;;;;;0.98;0.70;;;14.40;99.90;;;;;;4908222;29;20110;-68
2022/06/15 00:50:10;;;;;;;1.25;0.57;;;14.40;99.90;;;;;;4892656;29;20069;-68
2022/06/15 00:53:05;;;;;;;1.10;0.70;;;14.40;99.90;;;;;;4907762;29;20257;-68
2022/06/15 00:55:32;;;;;;;0.65;0.50;;;14.40;99.90;;;;;;4908072;29;20138;-67
2022/06/15 00:58:01;;;;;;;1.15;0.80;;;14.40;99.90;;;;;;4924654;29;20143;-68
2022/06/15 01:00:28;;;;;;;0.95;0.77;;;14.30;99.90;;;;;;4906212;29;20082;-68
2022/06/15 01:02:55;;;;;;;0.90;0.80;;;14.30;99.90;;;;;;4907632;29;20061;-68
2022/06/15 01:05:24;;;;;;;1.65;0.80;;;14.30;99.90;;;;;;4925544;29;20052;-68
2022/06/15 01:08:03;;;;;;;1.33;1.10;;;14.20;99.90;;;;;;4905421;29;20170;-68
2022/06/15 01:11:05;;;;;;;0.90;0.70;;;14.10;99.90;;;;;;4924591;29;20139;-68
2022/06/15 01:13:50;;;;;;;1.15;0.73;;;14.10;99.90;;;;;;4918495;29;21000;-68
2022/06/15 01:16:27;;;;;;;0.90;0.65;;;14.00;99.90;;;;;;4893295;29;20138;-68
2022/06/15 01:19:04;;;;;;;1.30;0.82;;;14.00;99.90;;;;;;4911146;29;20106;-68
2022/06/15 01:21:37;;;;;;;0.82;0.65;;;13.90;99.90;;;;;;4911642;29;20107;-68
2022/06/15 01:24:32;;;;;;;0.95;0.60;;;13.90;99.90;;;;;;4910753;29;20136;-68
2022/06/15 01:27:33;;;;;;;1.20;0.60;;;13.80;99.90;;;;;;4906481;29;20095;-68
2022/06/15 01:30:35;;;;;;;1.02;0.90;;;13.80;99.90;;;;;;4907081;29;20052;-68
2022/06/15 01:33:27;;;;;;;1.27;0.80;;;13.70;99.90;;;;;;4884326;29;20268;-68
2022/06/15 01:36:13;;;;;;;0.90;0.60;;;13.60;99.90;;;;;;4877614;29;20083;-68
2022/06/15 01:39:00;;;;;;;1.10;0.70;;;13.60;99.90;;;;;;4893773;29;20083;-68
2022/06/15 01:41:47;;;;;;;0.75;0.70;;;13.60;99.90;;;;;;4909569;29;20094;-68
2022/06/15 01:44:30;;;;;;;0.85;0.70;;;13.60;99.90;;;;;;4908177;29;20171;-68
2022/06/15 01:46:56;;;;;;;1.33;1.02;;;13.60;99.90;;;;;;4876162;29;20047;-68
2022/06/15 01:49:29;;;;;;;1.40;1.08;;;13.50;99.90;;;;;;4892165;29;20637;-68
2022/06/15 01:51:56;;;;;;;1.00;0.80;;;13.50;99.90;;;;;;4892956;29;20131;-68
2022/06/15 01:54:36;;;;;;;1.10;0.70;;;13.50;99.90;;;;;;4891916;29;20054;-68
2022/06/15 01:57:04;;;;;;;1.10;0.60;;;13.50;99.90;;;;;;4907240;29;20141;-68
2022/06/15 01:59:45;;;;;;;0.80;0.60;;;13.40;99.90;;;;;;4907432;29;20055;-68
2022/06/15 02:02:24;;;;;;;0.60;0.60;;;13.30;99.90;;;;;;4907059;29;20630;-68
2022/06/15 02:05:03;;;;;;;0.85;0.60;;;13.30;99.90;;;;;;4907650;29;20091;-68
2022/06/15 02:07:50;;;;;;;0.93;0.65;;;13.30;99.90;;;;;;4907494;29;20521;-68
2022/06/15 02:10:32;;;;;;;1.25;1.02;;;13.20;99.90;;;;;;4908608;29;20162;-68
2022/06/15 02:13:05;;;;;;;1.25;0.70;;;13.20;99.90;;;;;;4891694;29;20040;-68
2022/06/15 02:15:31;;;;;;;1.50;0.70;;;13.20;99.90;;;;;;4905671;29;20082;-68
2022/06/15 02:18:00;;;;;;;1.65;0.80;;;13.20;99.90;;;;;;4892604;29;20123;-69
2022/06/15 02:20:33;;;;;;;1.65;0.82;;;13.20;99.90;;;;;;4892030;29;20052;-69
2022/06/15 02:23:04;;;;;;;1.15;0.75;;;13.20;99.90;;;;;;4876940;29;20240;-69
2022/06/15 02:25:33;;;;;;;1.38;0.90;;;13.10;99.90;;;;;;4907162;29;20091;-69
2022/06/15 02:28:00;;;;;;;1.15;0.70;;;13.10;99.90;;;;;;4891826;29;20091;-68
2022/06/15 02:30:28;;;;;;;0.77;0.63;;;13.10;99.90;;;;;;4905338;29;20200;-69
2022/06/15 02:32:55;;;;;;;1.30;0.80;;;13.10;99.90;;;;;;4891788;29;20119;-69
2022/06/15 02:35:23;;;;;;;0.73;0.57;;;13.00;99.90;;;;;;4904319;29;20084;-69
2022/06/15 02:37:50;;;;;;;1.63;1.00;;;13.00;99.90;;;;;;4909151;29;20116;-69
2022/06/15 02:40:19;;;;;;;1.38;0.65;;;13.00;99.90;;;;;;4891166;29;20130;-69
2022/06/15 02:42:46;;;;;;;1.45;0.90;;;12.90;99.90;;;;;;4891345;29;20146;-68
2022/06/15 02:45:28;;;;;;;1.27;0.77;;;12.90;99.90;;;;;;4874214;29;20087;-69
2022/06/15 02:47:55;;;;;;;1.67;0.90;;;12.90;99.90;;;;;;4907884;29;20504;-69
2022/06/15 02:50:22;;;;;;;1.58;1.00;;;12.80;99.90;;;;;;4891601;29;20075;-68
2022/06/15 02:53:10;;;;;;;1.27;0.90;;;12.80;99.90;;;;;;4907950;29;20044;-70
2022/06/15 02:55:37;;;;;;;1.17;0.77;;;12.70;99.90;;;;;;4901505;29;20140;-69
2022/06/15 02:58:16;;;;;;;1.13;0.90;;;12.70;99.90;;;;;;4891929;29;20094;-69
2022/06/15 03:00:43;;;;;;;1.35;0.70;;;12.70;99.90;;;;;;4876045;29;20143;-69
2022/06/15 03:03:10;;;;;;;1.48;0.90;;;12.60;99.90;;;;;;4908540;29;20158;-69
2022/06/15 03:05:36;;;;;;;1.13;0.85;;;12.60;99.90;;;;;;4907234;29;20156;-69
2022/06/15 03:08:03;;;;;;;1.23;0.70;;;12.50;99.90;;;;;;4891777;29;20526;-68
2022/06/15 03:10:30;;;;;;;2.22;1.10;;;12.50;99.90;;;;;;4907613;29;20095;-69
2022/06/15 03:12:57;;;;;;;1.40;1.02;;;12.40;99.90;;;;;;4909584;29;20131;-69
2022/06/15 03:15:23;;;;;;;1.02;0.80;;;12.40;99.90;;;;;;4910544;29;20080;-69
2022/06/15 03:17:52;;;;;;;1.33;0.75;;;12.40;99.90;;;;;;4911758;29;20135;-69
2022/06/15 03:20:19;;;;;;;1.20;0.88;;;12.30;99.90;;;;;;4894610;29;20143;-69
2022/06/15 03:22:46;;;;;;;0.93;0.63;;;12.30;99.90;;;;;;4912620;29;20159;-68
2022/06/15 03:25:13;;;;;;;1.45;0.88;;;12.20;99.90;;;;;;4893755;29;20514;-69
2022/06/15 03:27:41;;;;;;;1.52;1.30;;;12.20;99.90;;;;;;4909022;29;20151;-69
2022/06/15 03:30:08;;;;;;;1.17;0.88;;;12.20;99.90;;;;;;4908001;29;20957;-69
2022/06/15 03:32:35;;;;;;;1.25;0.90;;;12.10;99.90;;;;;;4911545;29;20052;-69
2022/06/15 03:35:02;;;;;;;0.65;0.65;;;12.10;99.90;;;;;;4911335;29;20140;-69
2022/06/15 03:37:29;;;;;;;2.55;0.88;;;12.10;99.90;;;;;;4894658;29;20087;-69
2022/06/15 03:39:56;;;;;;;1.15;0.70;;;12.00;99.90;;;;;;4894625;29;20145;-68
2022/06/15 03:42:24;;;;;;;1.00;0.75;;;12.10;99.90;;;;;;4911341;29;20127;-68
2022/06/15 03:44:52;;;;;;;0.50;0.50;;;12.10;99.90;;;;;;4877094;29;20083;-68
2022/06/15 03:47:20;;;;;;;1.95;0.90;;;12.10;99.90;;;;;;4910565;29;20119;-68
2022/06/15 03:49:48;;;;;;;1.25;0.80;;;12.00;99.90;;;;;;4909833;29;20131;-69
2022/06/15 03:52:16;;;;;;;0.70;0.65;;;12.00;99.90;;;;;;4894549;29;20480;-69
2022/06/15 03:54:42;;;;;;;1.15;0.90;;;12.00;99.90;;;;;;4911041;29;20240;-69
2022/06/15 03:57:10;;;;;;;1.35;0.90;;;12.00;99.90;;;;;;4909161;29;20092;-69
2022/06/15 03:59:37;;;;;;;1.42;0.93;;;12.00;99.90;;;;;;4908162;29;20048;-69
2022/06/15 04:02:04;;;;;;;1.65;0.80;;;12.00;99.90;;;;;;4908631;29;20083;-68
2022/06/15 04:04:31;;;;;;;1.05;0.80;;;12.00;99.90;;;;;;4911329;29;20045;-69
2022/06/15 04:06:59;;;;;;;1.00;0.88;;;12.00;99.90;;;;;;4909939;29;20468;-69
2022/06/15 04:09:26;;;;;;;1.40;0.95;;;12.00;99.90;;;;;;4909286;29;20079;-69
2022/06/15 04:11:59;;;;;;;1.15;0.90;;;11.90;99.90;;;;;;4893812;29;20052;-69
2022/06/15 04:14:26;;;;;;;1.92;0.80;;;11.90;99.90;;;;;;4890170;29;20120;-69
2022/06/15 04:16:56;;;;;;;0.82;0.77;;;11.90;99.90;;;;;;4907117;29;20139;-69
2022/06/15 04:19:24;;;;;;;0.65;0.60;;;11.90;99.90;;;;;;4909689;29;20127;-69
2022/06/15 04:21:51;;;;;;;1.20;0.70;;;12.00;99.90;;;;;;4909574;29;20619;-69
2022/06/15 04:24:18;;;;;;;0.93;0.70;;;12.00;99.90;;;;;;4909715;29;20412;-68
2022/06/15 04:26:46;;;;;;;1.23;0.95;;;12.00;99.90;;;;;;4912744;29;20051;-69
2022/06/15 04:29:13;;;;;;;1.45;0.90;;;12.00;99.90;;;;;;4910720;29;20139;-69
2022/06/15 04:31:40;;;;;;;1.50;1.00;;;12.00;99.90;;;;;;4894973;29;20048;-69
2022/06/15 04:34:07;;;;;;;1.10;0.80;;;12.00;99.90;;;;;;4903413;29;20048;-69
2022/06/15 04:36:34;;;;;;;0.93;0.73;;;12.10;99.90;;;;;;4911441;29;20053;-69
2022/06/15 04:39:01;;;;;;;1.60;0.80;;;12.10;99.90;;;;;;4892870;29;20094;-69
2022/06/15 04:41:28;;;;;;;1.92;0.88;;;12.20;99.90;;;;;;4928098;29;20054;-69
2022/06/15 04:43:54;;;;;;;1.48;0.73;;;12.20;99.90;;;;;;4895844;29;20094;-69
2022/06/15 04:46:21;;;;;;;1.17;0.90;;;12.20;99.90;;;;;;4895909;29;20084;-69
2022/06/15 04:48:48;;;;;;;1.42;0.90;;;12.30;99.90;;;;;;4890828;29;20067;-69
2022/06/15 04:51:23;;;;;;;1.42;0.90;;;12.30;99.90;;;;;;4876002;29;20516;-69
2022/06/15 04:53:50;;;;;;;1.27;0.98;;;12.30;99.90;;;;;;4882356;29;20603;-69
2022/06/15 04:56:17;;;;;;;1.10;0.77;;;12.40;99.90;;;;;;4894922;29;20054;-69
2022/06/15 04:58:44;;;;;;;1.40;1.20;;;12.40;99.90;;;;;;4926631;29;20434;-69
2022/06/15 05:01:11;;;;;;;1.65;1.08;;;12.50;99.90;;;;;;4907759;29;20048;-69
2022/06/15 05:03:38;;;;;;;2.85;1.05;;;12.60;99.90;;;;;;4907987;29;20146;-69
2022/06/15 05:06:17;;;;;;;1.20;0.80;;;12.60;99.90;;;;;;4907716;29;20052;-69
2022/06/15 05:08:44;;;;;;;1.67;1.08;;;12.60;99.90;;;;;;4898885;29;20151;-69
2022/06/15 05:11:11;;;;;;;1.60;1.10;;;12.70;99.90;;;;;;4908192;29;20305;-69
2022/06/15 05:13:38;;;;;;;1.13;0.98;;;12.70;99.90;;;;;;4927243;29;20563;-69
2022/06/15 05:16:04;;;;;;;1.20;1.08;;;12.80;99.90;;;;;;4918742;29;20044;-69
2022/06/15 05:18:31;;;;;;;1.42;0.70;;;12.90;99.90;;;;;;4913478;29;20507;-69
2022/06/15 05:21:00;;;;;;;1.45;1.13;;;12.90;99.90;;;;;;4928549;29;20082;-69
2022/06/15 05:23:27;;;;;;;1.50;1.10;;;12.90;99.90;;;;;;4917708;29;20106;-69
2022/06/15 05:25:53;;;;;;;1.58;1.10;;;12.90;99.90;;;;;;4933253;29;20090;-69
2022/06/15 05:28:20;;;;;;;1.83;1.02;;;13.00;99.90;;;;;;4930760;29;20524;-69
2022/06/15 05:30:47;;;;;;;2.03;1.25;;;13.10;99.90;;;;;;4924895;29;20056;-69
2022/06/15 05:33:14;;;;;;;2.08;1.42;;;13.10;99.90;;;;;;4907001;29;20162;-68
2022/06/15 05:35:40;;;;;;;2.63;1.30;;;13.20;99.90;;;;;;4921426;29;20162;-68
2022/06/15 05:38:07;;;;;;;1.70;1.08;;;13.30;99.90;;;;;;4927735;29;20561;-69
2022/06/15 05:40:34;;;;;;;1.75;1.35;;;13.30;99.90;;;;;;4910473;29;20137;-69
2022/06/15 05:43:01;;;;;;;1.42;1.10;;;13.40;99.90;;;;;;4927343;29;20114;-69
2022/06/15 05:45:28;;;;;;;1.98;1.33;;;13.50;99.90;;;;;;4891326;29;20075;-69
2022/06/15 05:47:55;;;;;;;1.30;1.00;;;13.50;99.90;;;;;;4908878;29;20062;-70
2022/06/15 05:50:22;;;;;;;1.52;1.17;;;13.50;99.90;;;;;;4918967;29;20075;-68
2022/06/15 05:52:49;;;;;;;1.70;1.30;;;13.60;99.90;;;;;;4908237;29;20511;-68
2022/06/15 05:55:15;;;;;;;1.55;1.20;;;13.60;99.90;;;;;;4907730;29;20047;-69
2022/06/15 05:57:42;;;;;;;1.55;1.13;;;13.70;99.90;;;;;;4890447;29;20143;-69
2022/06/15 06:00:10;;;;;;;1.17;1.00;;;13.80;99.90;;;;;;4921323;29;20044;-70
2022/06/15 06:02:37;;;;;;;1.17;1.00;;;13.90;99.90;;;;;;4922217;29;20099;-69
2022/06/15 06:05:05;;;;;;;1.45;1.10;;;13.90;99.90;;;;;;4909496;29;20118;-69
2022/06/15 06:07:32;;;;;;;1.73;1.20;;;14.00;99.90;;;;;;4923106;29;20052;-68
2022/06/15 06:09:59;;;;;;;1.52;1.08;;;14.10;99.90;;;;;;4923391;29;20107;-68
2022/06/15 06:12:26;;;;;;;1.55;1.13;;;14.20;99.90;;;;;;4906792;29;20044;-68
2022/06/15 06:14:53;;;;;;;1.40;0.90;;;14.30;99.90;;;;;;4907213;29;20059;-68
2022/06/15 06:17:21;;;;;;;2.15;1.50;;;14.40;99.90;;;;;;4902729;29;20131;-68
2022/06/15 06:19:48;;;;;;;2.22;1.42;;;14.50;99.90;;;;;;4906484;29;20071;-68
2022/06/15 06:22:15;;;;;;;1.65;0.98;;;14.60;99.90;;;;;;4914697;29;20444;-68
2022/06/15 06:24:47;;;;;;;1.75;1.02;;;14.70;99.90;;;;;;4906743;29;20448;-68
2022/06/15 06:27:15;;;;;;;1.30;1.13;;;14.80;99.90;;;;;;4923386;29;20103;-68
2022/06/15 06:29:41;;;;;;;1.65;1.17;;;15.00;99.90;;;;;;4904082;29;20537;-68
2022/06/15 06:32:11;;;;;;;1.30;1.10;;;15.10;99.90;;;;;;4906267;29;20079;-68
2022/06/15 06:34:38;;;;;;;1.23;1.08;;;15.20;99.90;;;;;;4906705;29;20151;-67
2022/06/15 06:37:06;;;;;;;1.30;0.90;;;15.30;99.90;;;;;;4908545;29;20204;-67
2022/06/15 06:39:34;;;;;;;1.42;1.17;;;15.40;99.90;;;;;;4910680;29;20146;-67
2022/06/15 06:42:01;;;;;;;1.20;1.02;;;15.50;99.90;;;;;;4909992;29;20460;-68
2022/06/15 06:44:28;;;;;;;0.90;0.80;;;15.50;99.90;;;;;;4908599;29;20114;-67
2022/06/15 06:46:55;;;;;;;2.13;0.90;;;15.60;99.90;;;;;;4928007;29;20311;-67
2022/06/15 06:49:22;;;;;;;1.27;0.80;;;15.70;99.90;;;;;;4930593;29;20514;-67
2022/06/15 06:51:49;;;;;;;1.10;0.82;;;15.80;99.90;;;;;;4930971;29;20143;-68
2022/06/15 06:54:18;;;;;;;1.30;0.80;;;16.00;99.90;;;;;;4930740;29;20087;-67
2022/06/15 06:56:44;;;;;;;1.10;0.80;;;16.10;99.90;;;;;;4930375;29;20464;-67
2022/06/15 06:59:12;;;;;;;1.20;0.90;;;16.10;99.90;;;;;;4929480;29;20428;-67
2022/06/15 07:01:40;;;;;;;1.02;0.82;;;16.20;99.90;;;;;;4911942;29;20143;-68
2022/06/15 07:04:07;;;;;;;1.13;0.80;;;16.30;99.90;;;;;;4894633;29;20127;-67
2022/06/15 07:06:35;;;;;;;1.08;0.70;;;16.40;99.90;;;;;;4910921;29;20052;-68
2022/06/15 07:09:03;;;;;;;1.17;0.85;;;16.50;99.90;;;;;;4913161;29;20530;-68
2022/06/15 07:11:29;;;;;;;1.20;1.00;;;16.60;99.90;;;;;;4930791;29;20186;-68
2022/06/15 07:13:56;;;;;;;0.98;0.68;;;16.70;99.90;;;;;;4929247;29;20502;-68
2022/06/15 07:16:23;;;;;;;1.38;0.80;;;16.80;99.90;;;;;;4925883;29;20058;-69
2022/06/15 07:18:50;;;;;;;1.15;0.82;;;16.90;99.90;;;;;;4908157;29;20118;-69
2022/06/15 07:21:19;;;;;;;1.00;0.75;;;17.00;99.90;;;;;;4930294;29;20441;-68
2022/06/15 07:23:48;;;;;;;1.17;0.77;;;17.10;99.90;;;;;;4913547;29;20207;-67
2022/06/15 07:26:18;;;;;;;1.83;1.25;;;17.10;99.90;;;;;;4898289;29;20134;-68
2022/06/15 07:28:45;;;;;;;0.90;0.80;;;17.20;99.90;;;;;;4896707;29;20097;-67
2022/06/15 07:31:27;;;;;;;2.33;1.00;;;17.40;99.90;;;;;;4910521;29;20052;-68
2022/06/15 07:33:55;;;;;;;1.30;1.00;;;17.50;99.90;;;;;;4907989;29;20563;-68
2022/06/15 07:36:23;;;;;;;1.20;0.93;;;17.60;99.90;;;;;;4911003;29;20379;-67
2022/06/15 07:38:51;;;;;;;1.38;0.95;;;17.60;99.90;;;;;;4905669;29;20066;-68
2022/06/15 07:41:18;;;;;;;1.27;0.70;;;17.70;99.90;;;;;;4913504;29;20117;-68
2022/06/15 07:43:45;;;;;;;1.23;0.82;;;17.90;99.90;;;;;;4912502;29;20056;-68
2022/06/15 07:46:12;;;;;;;1.35;0.90;;;17.90;99.90;;;;;;4892479;29;20052;-67
2022/06/15 07:51:43;;;;;;;0.73;0.73;;;18.10;99.90;;;;;;4929965;29;20361;-68
2022/06/15 07:54:12;;;;;;;1.33;0.90;;;18.20;99.90;;;;;;4911368;29;20226;-68
2022/06/15 07:56:39;;;;;;;0.98;0.70;;;18.40;99.90;;;;;;4911435;29;20055;-68
2022/06/15 07:59:06;;;;;;;1.13;0.80;;;18.50;99.90;;;;;;4890883;29;20230;-67
2022/06/15 08:01:33;;;;;;;1.08;0.70;;;18.70;99.90;;;;;;4911098;29;20075;-68
2022/06/15 08:04:00;;;;;;;1.23;0.80;;;18.70;99.90;;;;;;4926811;29;20055;-68
2022/06/15 08:06:28;;;;;;;1.80;0.80;;;18.80;99.90;;;;;;4910428;29;20483;-68
2022/06/15 08:08:54;;;;;;;0.95;0.60;;;18.90;99.90;;;;;;4907760;29;20802;-68
2022/06/15 08:11:21;;;;;;;1.77;0.70;;;19.00;99.90;;;;;;4909227;29;20047;-68
2022/06/15 08:13:48;;;;;;;1.08;0.90;;;19.10;99.90;;;;;;4910118;29;20130;-68
2022/06/15 08:16:15;;;;;;;1.70;0.75;;;19.10;99.90;;;;;;4894706;29;20087;-68
2022/06/15 08:18:44;;;;;;;1.20;0.70;;;19.20;99.90;;;;;;4895823;29;20044;-68
2022/06/15 08:21:16;;;;;;;1.55;0.80;;;19.30;99.90;;;;;;4895147;29;20135;-68
2022/06/15 08:23:44;;;;;;;0.50;0.50;;;19.40;99.90;;;;;;4893020;29;20056;-67
2022/06/15 08:26:17;;;;;;;1.00;0.70;;;19.60;99.90;;;;;;4906154;29;20102;-68
2022/06/15 08:28:47;;;;;;;0.77;0.52;;;19.70;99.90;;;;;;4878044;29;20111;-68
2022/06/15 08:31:14;;;;;;;0.60;0.60;;;19.80;99.90;;;;;;4910589;29;20051;-68
2022/06/15 08:33:41;;;;;;;1.15;0.85;;;19.90;99.90;;;;;;4911732;29;20055;-68
2022/06/15 08:36:12;;;;;;;0.93;0.70;;;20.00;99.90;;;;;;4912456;29;20412;-68
2022/06/15 08:38:40;;;;;;;0.90;0.60;;;20.20;99.90;;;;;;4912195;29;20067;-68
2022/06/15 08:41:15;;;;;;;1.20;0.63;;;20.30;99.90;;;;;;4912022;29;20071;-68
2022/06/15 08:44:07;;;;;;;0.98;0.60;;;20.40;99.90;;;;;;4911869;29;20107;-68
2022/06/15 08:46:41;;;;;;;0.85;0.52;;;20.60;99.90;;;;;;4911479;29;20130;-68
2022/06/15 08:49:49;;;;;;;0.70;0.50;;;20.70;99.90;;;;;;4916015;29;20052;-68
2022/06/15 08:52:25;;;;;;;0.95;0.65;;;20.80;99.90;;;;;;4918429;29;20058;-68
2022/06/15 08:54:59;;;;;;;1.70;0.77;;;20.90;99.90;;;;;;4911732;29;20129;-68
2022/06/15 08:57:47;;;;;;;0.32;0.32;;;21.10;99.60;;;;;;4912158;29;20082;-68
2022/06/15 09:00:21;;;;;;;0.52;0.40;;;21.30;98.40;;;;;;4909822;29;20051;-69
2022/06/15 09:02:57;;;;;;;0.70;0.50;;;21.30;97.60;;;;;;4911240;29;20558;-69
2022/06/15 09:05:33;;;;;;;0.43;0.32;;;21.40;97.60;;;;;;4908457;29;20059;-69
2022/06/15 09:08:16;;;;;;;0.57;0.43;;;21.50;96.50;;;;;;4925601;29;20055;-70
2022/06/15 09:10:49;;;;;;;0.43;0.43;;;21.60;96.10;;;;;;4894376;29;20056;-68
2022/06/15 09:13:29;;;;;;;1.05;0.43;;;21.60;94.10;;;;;;4901895;29;20043;-69
2022/06/15 09:15:59;;;;;;;0.63;0.50;;;21.70;94.70;;;;;;4910146;29;20087;-69
2022/06/15 09:18:37;;;;;;;0.40;0.40;;;21.70;93.90;;;;;;4911344;29;20044;-69
2022/06/15 09:21:12;;;;;;;0.82;0.60;;;21.80;93.70;;;;;;4929020;29;20114;-68
2022/06/15 09:24:08;;;;;;;1.08;0.40;;;21.80;93.60;;;;;;4925613;29;20071;-68
2022/06/15 09:26:46;;;;;;;0.55;0.40;;;21.80;93.00;;;;;;4893317;29;20119;-68
2022/06/15 09:29:25;;;;;;;0.47;0.30;;;21.80;93.00;;;;;;4884739;29;20122;-68
2022/06/15 09:31:55;;;;;;;0.30;0.28;;;22.00;93.00;;;;;;4920244;29;20123;-68
2022/06/15 09:34:50;;;;;;;0.90;0.60;;;22.10;93.10;;;;;;4894479;29;20122;-68
2022/06/15 09:37:19;;;;;;;0.85;0.65;;;22.20;93.10;;;;;;4913197;29;20063;-68
2022/06/15 09:39:46;;;;;;;0.73;0.50;;;22.40;92.80;;;;;;4895601;29;20050;-69
2022/06/15 09:42:22;;;;;;;0.57;0.55;;;22.50;91.90;;;;;;4928188;29;20087;-68
2022/06/15 09:45:01;;;;;;;0.50;0.32;;;22.60;90.10;;;;;;4909584;29;20063;-68
2022/06/15 09:47:42;;;;;;;1.25;0.40;;;22.70;90.10;;;;;;4907371;29;20584;-67
2022/06/15 09:50:20;;;;;;;2.15;0.40;;;22.70;91.10;;;;;;4908195;29;20086;-68
2022/06/15 09:53:09;;;;;;;1.00;0.40;;;22.80;91.40;;;;;;4927766;29;20239;-67
2022/06/15 09:55:39;;;;;;;0.90;0.40;;;22.90;91.30;;;;;;4924754;29;20135;-67
2022/06/15 09:58:51;;;;;;;0.47;0.30;;;23.00;90.40;;;;;;4909676;29;20420;-67
2022/06/15 10:01:18;;;;;;;0.70;0.43;;;23.10;89.50;;;;;;4910616;29;20127;-67
2022/06/15 10:03:51;;;;;;;0.43;0.40;;;23.20;90.70;;;;;;4902846;29;20082;-67
2022/06/15 10:06:29;;;;;;;0.90;0.52;;;23.20;90.00;;;;;;4910378;29;20108;-67
2022/06/15 10:08:56;;;;;;;0.50;0.50;;;23.30;90.10;;;;;;4908735;29;20093;-67
2022/06/15 10:11:49;;;;;;;0.50;0.50;;;23.40;90.40;;;;;;4907798;29;20061;-67
2022/06/15 10:14:27;;;;;;;1.00;0.65;;;23.40;88.00;;;;;;4924083;29;20170;-67
2022/06/15 10:17:22;;;;;;;1.67;0.77;;;23.40;86.80;;;;;;4910215;29;20090;-67
2022/06/15 10:19:49;;;;;;;0.75;0.50;;;23.40;87.10;;;;;;4911385;29;20311;-67
2022/06/15 10:22:30;;;;;;;1.35;0.70;;;23.40;87.00;;;;;;4909729;29;20052;-67
2022/06/15 10:24:58;;;;;;;2.95;0.40;;;23.50;84.70;;;;;;4908029;29;20543;-67
2022/06/15 10:27:35;;;;;;;0.73;0.45;;;23.50;84.20;;;;;;4907226;29;20064;-67
2022/06/15 10:30:08;;;;;;;0.63;0.40;;;23.50;83.90;;;;;;4905609;29;20150;-67
2022/06/15 10:32:36;;;;;;;;;;;23.60;85.90;;;;;;4923740;29;20062;-70
2022/06/15 10:35:03;;;;;;;0.57;0.50;;;23.70;86.10;;;;;;4892742;29;19927;-69
2022/06/15 10:37:32;;;;;;;0.70;0.40;;;23.80;86.40;;;;;;4926069;29;20135;-68
2022/06/15 10:40:00;;;;;;;1.00;0.50;;;23.90;84.70;;;;;;4904680;29;20146;-68
2022/06/15 10:42:36;;;;;;;0.55;0.40;;;24.00;85.40;;;;;;4878600;29;20094;-68
2022/06/15 10:45:23;;;;;;;0.75;0.43;;;24.00;83.30;;;;;;4908481;29;20131;-68
2022/06/15 10:47:54;;;;;;;0.77;0.47;;;24.00;82.90;;;;;;4925954;29;20090;-68
2022/06/15 10:50:32;;;;;;;1.00;0.50;;;24.10;85.40;;;;;;4910309;29;20138;-68
2022/06/15 10:53:46;;;;;;;0.65;0.38;;;24.30;83.50;;;;;;4899459;29;20048;-68
2022/06/15 11:02:37;;;;;;;2.10;0.88;;;24.30;79.30;;;;;;4924549;29;20124;-69
2022/06/15 11:05:11;;;;;;;1.17;0.60;;;24.40;78.60;;;;;;4908874;29;20106;-68
2022/06/15 11:08:01;;;;;;;0.50;0.50;;;24.40;79.20;;;;;;4926183;29;20144;-68
2022/06/15 11:10:34;;;;;;;0.55;0.40;;;24.40;78.40;;;;;;4907618;29;20142;-68
2022/06/15 11:13:02;;;;;;;0.45;0.40;;;24.50;76.80;;;;;;4919523;29;20143;-69
2022/06/15 11:18:37;;;;;;;0.40;0.40;;;24.80;77.80;;;;;;4897828;29;20102;-69
2022/06/15 11:21:21;;;;;;;0.98;0.70;;;24.90;77.50;;;;;;4889219;29;20151;-69
2022/06/15 11:23:49;;;;;;;1.20;0.73;;;25.00;78.20;;;;;;4888783;29;20083;-69
2022/06/15 11:26:53;;;;;;;1.25;0.70;;;25.20;73.70;;;;;;4923084;29;20087;-69
2022/06/15 11:29:29;;;;;;;0.52;0.50;;;25.30;75.50;;;;;;4898729;29;20381;-70
2022/06/15 11:32:10;;;;;;;0.95;0.40;;;25.60;74.50;;;;;;4912379;29;20047;-70
2022/06/15 11:34:39;;;;;;;0.70;0.60;;;25.80;71.60;;;;;;4893469;29;20162;-69
2022/06/15 11:37:17;;;;;;;0.70;0.55;;;25.70;70.60;;;;;;4897619;29;20082;-69
2022/06/15 11:39:48;;;;;;;0.90;0.40;;;25.80;70.80;;;;;;4898252;29;20135;-69
2022/06/15 11:42:16;;;;;;;0.40;0.40;;;26.20;73.30;;;;;;4912643;29;20058;-69
2022/06/15 11:44:43;;;;;;;0.65;0.52;;;26.70;73.20;;;;;;4912647;29;20619;-70
2022/06/15 11:47:23;;;;;;;0.50;0.43;;;27.00;70.10;;;;;;4912976;29;20150;-70
2022/06/15 11:49:59;;;;;;;0.80;0.50;;;27.30;71.10;;;;;;4912895;29;20055;-69
2022/06/15 11:52:45;;;;;;;0.90;0.60;;;27.40;67.10;;;;;;4927652;29;20226;-70
2022/06/15 11:55:43;;;;;;;1.08;0.70;;;27.40;69.30;;;;;;4929960;29;20052;-70
2022/06/15 11:58:36;;;;;;;0.80;0.50;;;27.70;68.30;;;;;;4925793;29;20139;-70
2022/06/15 12:01:19;;;;;;;;;;;27.90;66.40;;;;;;4927337;29;20690;-69
2022/06/15 12:04:23;;;;;;;1.05;0.80;;;28.20;66.80;;;;;;4897064;29;20010;-68
2022/06/15 12:07:22;;;;;;;0.90;0.60;;;28.50;65.30;;;;;;4926070;29;20105;-68
2022/06/15 12:09:57;;;;;;;1.15;0.80;;;28.80;63.50;;;;;;4914026;29;20091;-68
2022/06/15 12:12:37;;;;;;;0.65;0.65;;;29.10;65.00;;;;;;4926788;29;20083;-69
2022/06/15 12:15:08;;;;;;;0.60;0.60;;;29.50;63.30;;;;;;4910498;29;20052;-69
2022/06/15 12:17:41;;;;;;;0.57;0.57;;;29.90;61.30;;;;;;4913204;29;20110;-69
2022/06/15 12:20:16;;;;;;;0.85;0.57;;;30.20;61.40;;;;;;4912722;29;20087;-69
2022/06/15 12:22:55;;;;;;;0.50;0.50;;;30.40;61.20;;;;;;4912291;29;20126;-70
2022/06/15 12:25:28;;;;;;;0.63;0.63;;;30.90;61.60;;;;;;4906498;29;20562;-70
2022/06/15 12:28:01;;;;;;;1.05;0.70;;;31.10;58.50;;;;;;4923230;29;20131;-69
2022/06/15 12:30:48;;;;;;;0.50;0.50;;;31.20;60.10;;;;;;4909376;29;20063;-69
2022/06/15 12:33:44;;;;;;;0.80;0.60;;;31.50;59.10;;;;;;4911707;29;20171;-69
2022/06/15 12:36:22;;;;;;;1.23;0.70;;;31.70;58.10;;;;;;4926158;29;20134;-68
2022/06/15 12:38:52;;;;;;;1.02;0.70;;;31.40;58.30;;;;;;4928778;29;20115;-69
2022/06/15 12:44:18;;;;;;;1.38;0.90;;;31.10;57.80;;;;;;4912123;29;20123;-69
2022/06/15 12:46:45;;;;;;;1.40;0.90;;;31.50;58.70;;;;;;4911101;29;20058;-69
2022/06/15 12:49:59;;;;;;;0.70;0.70;;;32.10;57.60;;;;;;4906110;29;20058;-69
2022/06/15 12:52:29;;;;;;;1.05;0.70;;;32.70;58.00;;;;;;4902819;29;20087;-69
2022/06/15 12:55:33;;;;;;;0.70;0.70;;;33.20;55.60;;;;;;4911387;29;20056;-70
2022/06/15 12:58:37;;;;;;;0.60;0.50;;;33.60;53.80;;;;;;4928404;29;20048;-69
2022/06/15 13:01:10;;;;;;;0.50;0.50;;;33.60;54.80;;;;;;4859481;29;20084;-69
2022/06/15 13:04:03;;;;;;;0.57;0.50;;;33.20;54.20;;;;;;4919655;29;20400;-69
2022/06/15 13:06:32;;;;;;;0.50;0.47;;;33.00;53.90;;;;;;4910957;29;20142;-69
2022/06/15 13:09:20;;;;;;;1.10;0.70;;;32.70;54.00;;;;;;4894389;29;20052;-69
2022/06/15 13:12:06;;;;;;;0.70;0.60;;;32.80;53.60;;;;;;4927529;29;20195;-69
2022/06/15 13:14:44;;;;;;;0.52;0.52;;;33.00;54.30;;;;;;4910250;29;20511;-69
2022/06/15 13:17:15;;;;;;;0.95;0.85;;;33.30;54.30;;;;;;4908773;29;20455;-69
2022/06/15 13:19:47;;;;;;;0.93;0.73;;;33.50;53.90;;;;;;4896159;29;20977;-69
2022/06/15 13:22:15;;;;;;;0.70;0.70;;;33.50;54.70;;;;;;4896109;29;20091;-69
2022/06/15 13:24:52;;;;;;;0.75;0.57;;;33.90;52.90;;;;;;4907760;29;20524;-69
2022/06/15 13:27:32;;;;;;;0.70;0.60;;;34.40;53.20;;;;;;4893056;29;20150;-69
2022/06/15 13:30:18;;;;;;;0.50;0.50;;;34.70;51.60;;;;;;4909276;29;20139;-69
2022/06/15 13:32:58;;;;;;;0.45;0.45;;;35.00;51.10;;;;;;4898018;29;20086;-69